Time;durP1;ratioP1;P1;durP2;ratioP2;P2;SDS_P1;SDS_P2;PMS_P1;PMS_P2;Temp;Humidity;BMP_temperature;BMP_pressure;BME280_temperature;BME280_humidity;BME280_pressure;Samples;Min_cycle;Max_cycle;Signal;HPM_P1;HPM_P2
2023/04/20 00:00:20;;;;;;;;;;;;;;;7.34;43.33;102242.06;5067335;28;19923;-63
2023/04/20 00:02:46;;;;;;;;;;;;;;;7.32;43.59;102235.19;5063664;28;19940;-62
2023/04/20 00:05:11;;;;;;;;;;;;;;;7.30;43.10;102237.13;5061169;28;19921;-62
2023/04/20 00:07:37;;;;;;;;;;;;;;;7.29;43.37;102228.34;5066341;28;19920;-63
2023/04/20 00:10:03;;;;;;;;;;;;;;;7.27;43.02;102229.41;5066958;28;20361;-62
2023/04/20 00:12:28;;;;;;;;;;;;;;;7.27;43.37;102222.34;5067345;28;19924;-62
2023/04/20 00:14:54;;;;;;;;;;;;;;;7.24;43.28;102217.28;5061108;28;19921;-62
2023/04/20 00:17:19;;;;;;;;;;;;;;;7.24;43.24;102217.28;5062505;28;20040;-62
2023/04/20 00:19:45;;;;;;;;;;;;;;;7.23;43.05;102212.97;5061921;28;20295;-62
2023/04/20 00:22:10;;;;;;;;;;;;;;;7.23;43.22;102209.44;5062792;28;19917;-63
2023/04/20 00:24:35;;;;;;;;;;;;;;;7.21;43.30;102204.28;5066391;28;19943;-62
2023/04/20 00:27:00;;;;;;;;;;;;;;;7.22;43.21;102199.84;5063168;28;19919;-62
2023/04/20 00:29:26;;;;;;;;;;;;;;;7.21;43.16;102199.00;5063753;28;20344;-62
2023/04/20 00:31:51;;;;;;;;;;;;;;;7.22;43.41;102199.84;5067237;28;19978;-63
2023/04/20 00:34:16;;;;;;;;;;;;;;;7.21;43.36;102193.72;5067691;28;19913;-62
2023/04/20 00:36:41;;;;;;;;;;;;;;;7.21;43.42;102196.34;5059792;28;19920;-62
2023/04/20 00:39:06;;;;;;;;;;;;;;;7.20;43.50;102193.81;5065977;28;20053;-62
2023/04/20 00:41:32;;;;;;;;;;;;;;;7.20;43.35;102192.03;5049821;28;19944;-62
2023/04/20 00:43:57;;;;;;;;;;;;;;;7.20;43.66;102185.91;5060208;28;19998;-62
2023/04/20 00:46:22;;;;;;;;;;;;;;;7.18;43.41;102183.38;5066946;28;20374;-62
2023/04/20 00:48:51;;;;;;;;;;;;;;;7.18;43.58;102185.19;5065230;28;19967;-63
2023/04/20 00:51:17;;;;;;;;;;;;;;;7.16;43.71;102180.00;5067378;28;19912;-62
2023/04/20 00:53:43;;;;;;;;;;;;;;;7.14;43.69;102172.19;5066865;28;19917;-62
2023/04/20 00:56:08;;;;;;;;;;;;;;;7.13;43.89;102169.69;5066252;28;19919;-62
2023/04/20 00:58:33;;;;;;;;;;;;;;;7.13;43.95;102161.75;5066694;28;19924;-63
2023/04/20 01:00:59;;;;;;;;;;;;;;;7.11;44.02;102155.75;5067215;28;19946;-62
2023/04/20 01:03:24;;;;;;;;;;;;;;;7.09;44.13;102161.16;5058583;28;19928;-62
2023/04/20 01:05:50;;;;;;;;;;;;;;;7.07;44.13;102155.13;5048917;28;20007;-62
2023/04/20 01:08:15;;;;;;;;;;;;;;;7.03;44.37;102139.63;5064723;28;19916;-62
2023/04/20 01:10:40;;;;;;;;;;;;;;;7.01;44.41;102137.13;5065656;28;20373;-62
2023/04/20 01:13:05;;;;;;;;;;;;;;;6.99;44.34;102130.28;5061492;28;19939;-62
2023/04/20 01:15:31;;;;;;;;;;;;;;;6.98;44.47;102125.94;5062997;28;19916;-62
2023/04/20 01:17:56;;;;;;;;;;;;;;;6.97;44.43;102126.91;5065361;28;19979;-62
2023/04/20 01:20:22;;;;;;;;;;;;;;;6.94;44.64;102117.41;5062740;28;19916;-62
2023/04/20 01:22:49;;;;;;;;;;;;;;;6.92;44.81;102119.31;5066414;28;21213;-63
2023/04/20 01:25:14;;;;;;;;;;;;;;;6.91;44.70;102114.97;5070023;28;19927;-62
2023/04/20 01:27:40;;;;;;;;;;;;;;;6.87;44.85;102110.03;5064882;28;20320;-62
2023/04/20 01:30:05;;;;;;;;;;;;;;;6.84;45.23;102104.03;5068028;28;19939;-62
2023/04/20 01:32:31;;;;;;;;;;;;;;;6.82;45.21;102105.13;5068166;28;19916;-62
2023/04/20 01:34:56;;;;;;;;;;;;;;;6.81;45.46;102090.22;5070019;28;19950;-62
2023/04/20 01:37:21;;;;;;;;;;;;;;;6.80;45.46;102094.66;5066188;28;19913;-62
2023/04/20 01:39:46;;;;;;;;;;;;;;;6.79;45.70;102094.78;5067652;28;19923;-63
2023/04/20 01:42:11;;;;;;;;;;;;;;;6.76;45.52;102082.66;5073558;28;19956;-63
2023/04/20 01:44:37;;;;;;;;;;;;;;;6.73;45.82;102082.06;5071174;28;20439;-63
2023/04/20 01:47:03;;;;;;;;;;;;;;;6.69;46.11;102076.16;5063405;28;19916;-63
2023/04/20 01:49:28;;;;;;;;;;;;;;;6.65;46.14;102074.72;5060902;28;20405;-61
2023/04/20 01:51:54;;;;;;;;;;;;;;;6.62;46.14;102069.63;5069459;28;19965;-62
2023/04/20 01:54:19;;;;;;;;;;;;;;;6.56;46.36;102072.75;5070874;28;19916;-62
2023/04/20 01:56:44;;;;;;;;;;;;;;;6.50;46.49;102071.41;5060114;28;19978;-62
2023/04/20 01:59:09;;;;;;;;;;;;;;;6.47;46.72;102070.81;5066326;28;21029;-62
2023/04/20 02:01:35;;;;;;;;;;;;;;;6.44;46.57;102066.59;5067001;28;19959;-62
2023/04/20 02:04:00;;;;;;;;;;;;;;;6.42;46.58;102065.88;5069997;28;20347;-63
2023/04/20 02:06:25;;;;;;;;;;;;;;;6.40;46.79;102059.03;5067880;28;20293;-62
2023/04/20 02:08:50;;;;;;;;;;;;;;;6.37;46.78;102059.25;5066951;28;20003;-62
2023/04/20 02:11:15;;;;;;;;;;;;;;;6.33;47.20;102053.34;5069016;28;19920;-62
2023/04/20 02:13:40;;;;;;;;;;;;;;;6.29;47.23;102051.88;5067449;28;19923;-63
2023/04/20 02:16:06;;;;;;;;;;;;;;;6.28;47.22;102046.72;5064216;28;19916;-62
2023/04/20 02:18:31;;;;;;;;;;;;;;;6.25;47.92;102039.88;5059035;28;19916;-62
2023/04/20 02:20:57;;;;;;;;;;;;;;;6.26;47.59;102038.91;5067715;28;19916;-62
2023/04/20 02:23:22;;;;;;;;;;;;;;;6.25;47.94;102041.69;5069823;28;19931;-62
2023/04/20 02:25:47;;;;;;;;;;;;;;;6.23;48.41;102036.50;5064698;28;19931;-62
2023/04/20 02:28:13;;;;;;;;;;;;;;;6.22;48.47;102035.66;5069304;28;19916;-62
2023/04/20 02:30:38;;;;;;;;;;;;;;;6.22;48.47;102033.03;5069145;28;19916;-62
2023/04/20 02:33:03;;;;;;;;;;;;;;;6.21;48.99;102028.72;5069276;28;20015;-63
2023/04/20 02:35:28;;;;;;;;;;;;;;;6.20;49.21;102032.31;5064908;28;19916;-62
2023/04/20 02:37:53;;;;;;;;;;;;;;;6.20;49.24;102040.22;5067885;28;20032;-62
2023/04/20 02:40:18;;;;;;;;;;;;;;;6.20;49.45;102032.31;5067270;28;19916;-62
2023/04/20 02:42:43;;;;;;;;;;;;;;;6.19;49.94;102030.63;5068605;28;20417;-62
2023/04/20 02:45:09;;;;;;;;;;;;;;;6.20;50.04;102032.31;5060717;28;19928;-62
2023/04/20 02:47:35;;;;;;;;;;;;;;;6.19;50.19;102027.16;5067435;28;19912;-62
2023/04/20 02:50:00;;;;;;;;;;;;;;;6.18;50.25;102026.31;5068851;28;19917;-62
2023/04/20 02:52:25;;;;;;;;;;;;;;;6.20;50.39;102020.91;5068198;28;20589;-62
2023/04/20 02:54:50;;;;;;;;;;;;;;;6.19;50.38;102014.81;5068209;28;19916;-61
2023/04/20 02:57:15;;;;;;;;;;;;;;;6.19;50.42;102014.81;5068006;28;19927;-62
2023/04/20 02:59:41;;;;;;;;;;;;;;;6.19;50.57;102003.41;5068448;28;19916;-62
2023/04/20 03:02:06;;;;;;;;;;;;;;;6.18;50.44;102014.91;5066927;28;19916;-62
2023/04/20 03:04:31;;;;;;;;;;;;;;;6.15;50.85;102015.97;5062565;28;19999;-62
2023/04/20 03:06:57;;;;;;;;;;;;;;;6.14;51.00;102014.31;5054227;28;20455;-63
2023/04/20 03:09:22;;;;;;;;;;;;;;;6.14;51.05;102000.28;5050764;28;19939;-62
2023/04/20 03:11:48;;;;;;;;;;;;;;;6.14;51.25;102000.28;5052912;28;19925;-62
2023/04/20 03:14:13;;;;;;;;;;;;;;;6.15;51.49;101996.69;5057628;28;19912;-62
2023/04/20 03:16:38;;;;;;;;;;;;;;;6.14;51.71;101995.84;5064012;28;19971;-62
2023/04/20 03:19:03;;;;;;;;;;;;;;;6.16;52.10;101993.09;5061405;28;19963;-63
2023/04/20 03:21:28;;;;;;;;;;;;;;;6.18;52.28;101989.38;5065651;28;19921;-63
2023/04/20 03:23:54;;;;;;;;;;;;;;;6.22;52.39;101988.19;5066260;28;19916;-62
2023/04/20 03:26:19;;;;;;;;;;;;;;;6.26;52.30;101995.88;5057013;28;19942;-62
2023/04/20 03:28:44;;;;;;;;;;;;;;;6.30;52.43;101990.25;5057166;28;19921;-62
2023/04/20 03:31:10;;;;;;;;;;;;;;;6.35;52.79;101992.53;5058271;28;20003;-62
2023/04/20 03:33:35;;;;;;;;;;;;;;;6.39;52.91;101988.75;5064653;28;19978;-62
2023/04/20 03:36:00;;;;;;;;;;;;;;;6.42;53.42;101975.31;5062801;28;19913;-62
2023/04/20 03:38:25;;;;;;;;;;;;;;;6.47;53.38;101978.44;5060311;28;19936;-62
2023/04/20 03:40:50;;;;;;;;;;;;;;;6.50;53.30;101971.13;5058649;28;20396;-62
2023/04/20 03:43:15;;;;;;;;;;;;;;;6.54;53.62;101963.81;5062675;28;20007;-62
2023/04/20 03:45:41;;;;;;;;;;;;;;;6.58;53.76;101965.25;5061056;28;19935;-62
2023/04/20 03:48:06;;;;;;;;;;;;;;;6.61;53.65;101966.81;5062111;28;20297;-62
2023/04/20 03:50:31;;;;;;;;;;;;;;;6.64;53.80;101969.22;5056695;28;20006;-62
2023/04/20 03:52:56;;;;;;;;;;;;;;;6.69;54.02;101961.81;5068850;28;20409;-63
2023/04/20 03:55:21;;;;;;;;;;;;;;;6.72;54.20;101958.94;5065799;28;19927;-62
2023/04/20 03:57:46;;;;;;;;;;;;;;;6.74;54.24;101960.50;5060605;28;19917;-62
2023/04/20 04:00:12;;;;;;;;;;;;;;;6.77;54.28;101964.72;5064326;28;19923;-63
2023/04/20 04:02:37;;;;;;;;;;;;;;;6.79;54.65;101958.34;5066972;28;20389;-62
2023/04/20 04:05:03;;;;;;;;;;;;;;;6.83;54.79;101951.88;5056156;28;20012;-62
2023/04/20 04:07:28;;;;;;;;;;;;;;;6.79;54.67;101939.03;5062962;28;19913;-62
2023/04/20 04:09:53;;;;;;;;;;;;;;;6.89;54.77;101947.91;5066136;28;19958;-62
2023/04/20 04:12:18;;;;;;;;;;;;;;;6.92;54.73;101944.19;5057651;28;19920;-62
2023/04/20 04:14:43;;;;;;;;;;;;;;;6.95;54.96;101938.69;5062651;28;20274;-63
2023/04/20 04:17:09;;;;;;;;;;;;;;;6.97;55.01;101942.03;5058964;28;19917;-62
2023/04/20 04:19:34;;;;;;;;;;;;;;;7.00;54.77;101953.22;5061594;28;19912;-62
2023/04/20 04:21:59;;;;;;;;;;;;;;;7.02;55.28;101932.78;5056345;28;19917;-62
2023/04/20 04:24:25;;;;;;;;;;;;;;;7.06;55.03;101936.03;5057344;28;20478;-62
2023/04/20 04:26:51;;;;;;;;;;;;;;;7.08;55.18;101932.31;5057610;28;19913;-63
2023/04/20 04:29:16;;;;;;;;;;;;;;;7.11;55.61;101928.56;5055493;28;19967;-63
2023/04/20 04:31:41;;;;;;;;;;;;;;;7.12;55.79;101917.88;5053146;28;20515;-63
2023/04/20 04:34:06;;;;;;;;;;;;;;;7.09;55.64;101904.09;5056264;28;20381;-62
2023/04/20 04:36:32;;;;;;;;;;;;;;;7.18;56.06;101919.19;5054795;28;20009;-62
2023/04/20 04:38:58;;;;;;;;;;;;;;;7.22;56.03;101914.50;5050284;28;19913;-62
2023/04/20 04:41:23;;;;;;;;;;;;;;;7.24;55.84;101902.03;5063959;28;19970;-62
2023/04/20 04:43:48;;;;;;;;;;;;;;;7.26;55.95;101897.47;5065529;28;19929;-62
2023/04/20 04:46:13;;;;;;;;;;;;;;;7.27;55.83;101897.34;5067782;28;20003;-63
2023/04/20 04:48:41;;;;;;;;;;;;;;;7.29;56.19;101887.50;5066091;28;19912;-63
2023/04/20 04:51:06;;;;;;;;;;;;;;;7.32;56.01;101889.88;5064054;28;19913;-62
2023/04/20 04:53:31;;;;;;;;;;;;;;;7.33;56.09;101891.56;5058748;28;20003;-62
2023/04/20 04:55:57;;;;;;;;;;;;;;;7.36;56.20;101890.47;5063723;28;19917;-62
2023/04/20 04:58:22;;;;;;;;;;;;;;;7.36;56.55;101890.47;5062660;28;19924;-62
2023/04/20 05:00:47;;;;;;;;;;;;;;;7.37;56.48;101893.00;5061461;28;19932;-62
2023/04/20 05:03:12;;;;;;;;;;;;;;;7.39;56.29;101895.50;5066446;28;20456;-62
2023/04/20 05:05:37;;;;;;;;;;;;;;;7.39;56.32;101891.06;5068254;28;19916;-62
2023/04/20 05:08:03;;;;;;;;;;;;;;;7.40;56.32;101892.75;5071822;28;20003;-62
2023/04/20 05:10:28;;;;;;;;;;;;;;;7.42;56.76;101889.97;5068019;28;19917;-62
2023/04/20 05:12:53;;;;;;;;;;;;;;;7.43;56.64;101891.66;5059122;28;19986;-62
2023/04/20 05:15:18;;;;;;;;;;;;;;;7.42;56.87;101885.53;5065312;28;20004;-62
2023/04/20 05:17:43;;;;;;;;;;;;;;;7.44;56.87;101880.13;5055245;28;19913;-63
2023/04/20 05:20:10;;;;;;;;;;;;;;;7.45;57.09;101887.06;5057873;28;19973;-62
2023/04/20 05:22:35;;;;;;;;;;;;;;;7.46;57.48;101891.41;5060921;28;19912;-62
2023/04/20 05:25:00;;;;;;;;;;;;;;;7.46;57.73;101889.59;5058907;28;20347;-62
2023/04/20 05:27:25;;;;;;;;;;;;;;;7.47;57.79;101878.06;5058883;28;19913;-62
2023/04/20 05:29:51;;;;;;;;;;;;;;;7.48;57.92;101873.63;5057884;28;19993;-62
2023/04/20 05:32:16;;;;;;;;;;;;;;;7.50;58.10;101871.69;5055880;28;19963;-62
2023/04/20 05:34:41;;;;;;;;;;;;;;;7.53;58.23;101883.84;5059807;28;20022;-61
2023/04/20 05:37:06;;;;;;;;;;;;;;;7.54;58.67;101877.59;5056995;28;19916;-62
2023/04/20 05:39:31;;;;;;;;;;;;;;;7.54;58.76;101878.41;5056016;28;19927;-62
2023/04/20 05:41:56;;;;;;;;;;;;;;;7.55;58.98;101880.09;5065146;28;19913;-62
2023/04/20 05:44:22;;;;;;;;;;;;;;;7.57;59.02;101869.41;5061865;28;19931;-62
2023/04/20 05:46:47;;;;;;;;;;;;;;;7.57;59.08;101861.47;5067132;28;20557;-62
2023/04/20 05:49:12;;;;;;;;;;;;;;;7.59;59.35;101864.81;5065468;28;20488;-62
2023/04/20 05:51:37;;;;;;;;;;;;;;;7.59;59.06;101863.03;5067069;28;19916;-62
2023/04/20 05:54:02;;;;;;;;;;;;;;;7.63;59.40;101866.25;5066917;28;19969;-62
2023/04/20 05:56:28;;;;;;;;;;;;;;;7.61;59.28;101858.44;5065289;28;19912;-62
2023/04/20 05:58:56;;;;;;;;;;;;;;;7.64;59.31;101865.28;5060596;28;20385;-61
2023/04/20 06:01:21;;;;;;;;;;;;;;;7.61;59.27;101861.09;5066469;28;19916;-62
2023/04/20 06:03:47;;;;;;;;;;;;;;;7.62;59.31;101859.28;5068301;28;19974;-62
2023/04/20 06:06:13;;;;;;;;;;;;;;;7.63;59.26;101859.16;5070243;28;19916;-62
2023/04/20 06:08:38;;;;;;;;;;;;;;;7.65;59.41;101859.88;5066902;28;21791;-61
2023/04/20 06:11:03;;;;;;;;;;;;;;;7.66;59.47;101858.91;5070383;28;19917;-62
2023/04/20 06:13:29;;;;;;;;;;;;;;;7.71;59.94;101851.41;5054152;28;19917;-62
2023/04/20 06:15:54;;;;;;;;;;;;;;;7.72;59.54;101855.75;5069305;28;19986;-61
2023/04/20 06:18:19;;;;;;;;;;;;;;;7.74;59.48;101856.44;5060740;28;20047;-62
2023/04/20 06:20:45;;;;;;;;;;;;;;;7.79;59.47;101861.34;5057179;28;20290;-62
2023/04/20 06:23:10;;;;;;;;;;;;;;;7.84;59.72;101861.00;5055230;28;20349;-62
2023/04/20 06:25:36;;;;;;;;;;;;;;;7.88;59.38;101855.31;5059281;28;19920;-62
2023/04/20 06:28:01;;;;;;;;;;;;;;;7.92;59.12;101853.25;5061405;28;20324;-61
2023/04/20 06:30:27;;;;;;;;;;;;;;;7.96;59.34;101867.91;5068962;28;19964;-62
2023/04/20 06:32:52;;;;;;;;;;;;;;;7.99;59.63;101857.88;5066915;28;19916;-62
2023/04/20 06:35:17;;;;;;;;;;;;;;;8.04;59.67;101854.84;5063979;28;19917;-62
2023/04/20 06:37:42;;;;;;;;;;;;;;;8.06;59.26;101856.41;5058473;28;19912;-62
2023/04/20 06:40:08;;;;;;;;;;;;;;;8.06;59.58;101845.81;5062422;28;19924;-62
2023/04/20 06:42:33;;;;;;;;;;;;;;;8.10;59.74;101846.44;5061523;28;20007;-62
2023/04/20 06:44:58;;;;;;;;;;;;;;;8.14;59.73;101847.84;5063631;28;19916;-62
2023/04/20 06:47:30;;;;;;;;;;;;;;;8.17;59.10;101844.94;5069553;28;20390;-61
2023/04/20 06:49:55;;;;;;;;;;;;;;;8.21;59.14;101845.50;5067261;28;20619;-62
2023/04/20 06:52:20;;;;;;;;;;;;;;;8.26;59.29;101844.13;5067215;28;20332;-62
2023/04/20 06:54:45;;;;;;;;;;;;;;;8.31;59.17;101846.38;5058401;28;19920;-61
2023/04/20 06:57:11;;;;;;;;;;;;;;;8.35;58.80;101842.53;5055739;28;20003;-62
2023/04/20 06:59:36;;;;;;;;;;;;;;;8.35;58.77;101847.81;5061650;28;20538;-62
2023/04/20 07:02:01;;;;;;;;;;;;;;;8.36;58.62;101841.56;5060740;28;20011;-60
2023/04/20 07:04:26;;;;;;;;;;;;;;;8.37;58.99;101835.31;5061066;28;20366;-61
2023/04/20 07:06:51;;;;;;;;;;;;;;;8.37;58.72;101838.78;5053246;28;19967;-62
2023/04/20 07:09:18;;;;;;;;;;;;;;;8.37;58.74;101836.13;5055542;28;19921;-61
2023/04/20 07:11:43;;;;;;;;;;;;;;;8.40;58.84;101842.16;5058839;28;19952;-62
2023/04/20 07:14:08;;;;;;;;;;;;;;;8.37;59.02;101836.13;5062173;28;19960;-62
2023/04/20 07:16:33;;;;;;;;;;;;;;;8.36;58.98;101834.47;5059210;28;19967;-61
2023/04/20 07:18:58;;;;;;;;;;;;;;;8.36;59.25;101838.91;5068885;28;19919;-62
2023/04/20 07:21:23;;;;;;;;;;;;;;;8.36;59.43;101839.75;5066240;28;20332;-61
2023/04/20 07:23:49;;;;;;;;;;;;;;;8.37;59.56;101849.38;5060832;28;19925;-62
2023/04/20 07:26:14;;;;;;;;;;;;;;;8.37;59.67;101837.94;5067048;28;20437;-62
2023/04/20 07:28:40;;;;;;;;;;;;;;;8.34;59.80;101838.22;5061508;28;19916;-62
2023/04/20 07:31:05;;;;;;;;;;;;;;;8.31;59.50;101841.09;5061899;28;19924;-62
2023/04/20 07:33:30;;;;;;;;;;;;;;;8.24;59.59;101846.06;5061793;28;20342;-62
2023/04/20 07:35:56;;;;;;;;;;;;;;;8.24;59.84;101838.13;5065920;28;19923;-62
2023/04/20 07:38:21;;;;;;;;;;;;;;;8.23;59.98;101836.47;5064396;28;20105;-62
2023/04/20 07:40:46;;;;;;;;;;;;;;;8.25;60.40;101836.34;5065070;28;20309;-61
2023/04/20 07:43:11;;;;;;;;;;;;;;;8.28;60.22;101851.94;5066441;28;19923;-61
2023/04/20 07:45:38;;;;;;;;;;;;;;;8.30;60.12;101839.41;5067319;28;20014;-61
2023/04/20 07:48:04;;;;;;;;;;;;;;;8.36;60.30;101838.91;5066001;28;20058;-62
2023/04/20 07:50:29;;;;;;;;;;;;;;;8.55;60.63;101819.66;5061630;28;19912;-61
2023/04/20 07:52:54;;;;;;;;;;;;;;;8.80;60.61;101826.28;5058098;28;19924;-61
2023/04/20 07:55:19;;;;;;;;;;;;;;;9.00;60.16;101823.56;5065829;28;19927;-62
2023/04/20 07:57:45;;;;;;;;;;;;;;;9.12;59.75;101831.38;5067190;28;20370;-62
2023/04/20 08:00:11;;;;;;;;;;;;;;;9.09;58.97;101816.59;5063793;28;19916;-62
2023/04/20 08:02:36;;;;;;;;;;;;;;;9.11;58.67;101833.19;5067216;28;19912;-62
2023/04/20 08:05:02;;;;;;;;;;;;;;;9.11;59.15;101824.41;5061081;28;19921;-62
2023/04/20 08:07:27;;;;;;;;;;;;;;;9.14;58.94;101821.50;5056684;28;19952;-62
2023/04/20 08:09:52;;;;;;;;;;;;;;;9.11;58.42;101809.34;5067043;28;19953;-62
2023/04/20 08:12:17;;;;;;;;;;;;;;;9.10;58.76;101828.03;5068363;28;20385;-62
2023/04/20 08:14:42;;;;;;;;;;;;;;;9.16;59.07;101822.19;5061719;28;19912;-61
2023/04/20 08:17:08;;;;;;;;;;;;;;;9.20;58.83;101811.16;5068661;28;20446;-62
2023/04/20 08:19:33;;;;;;;;;;;;;;;9.24;58.29;101814.38;5060047;28;19920;-62
2023/04/20 08:21:58;;;;;;;;;;;;;;;9.24;58.61;101817.03;5068051;28;20003;-62
2023/04/20 08:24:23;;;;;;;;;;;;;;;9.32;59.03;101811.91;5067569;28;19916;-62
2023/04/20 08:26:48;;;;;;;;;;;;;;;9.36;58.82;101802.69;5067524;28;19928;-62
2023/04/20 08:29:14;;;;;;;;;;;;;;;9.37;58.73;101807.00;5065402;28;19913;-62
2023/04/20 08:31:39;;;;;;;;;;;;;;;9.43;58.61;101805.59;5067431;28;19920;-62
2023/04/20 08:34:05;;;;;;;;;;;;;;;9.48;58.59;101806.84;5067448;28;19920;-61
2023/04/20 08:36:30;;;;;;;;;;;;;;;9.51;58.48;101795.97;5066739;28;20425;-62
2023/04/20 08:39:04;;;;;;;;;;;;;;;9.49;58.62;101803.22;5065087;28;20530;-62
2023/04/20 08:41:30;;;;;;;;;;;;;;;9.55;58.76;101801.84;5065557;28;20450;-61
2023/04/20 08:43:55;;;;;;;;;;;;;;;9.65;58.69;101797.38;5064312;28;19921;-61
2023/04/20 08:46:20;;;;;;;;;;;;;;;9.79;58.97;101796.09;5062516;28;20369;-62
2023/04/20 08:48:47;;;;;;;;;;;;;;;9.96;58.87;101803.34;5066908;28;19958;-61
2023/04/20 08:51:14;;;;;;;;;;;;;;;9.99;58.00;101796.91;5068327;28;19912;-62
2023/04/20 08:53:39;;;;;;;;;;;;;;;10.01;57.88;101790.47;5066985;28;20598;-62
2023/04/20 08:56:04;;;;;;;;;;;;;;;10.05;57.63;101791.00;5067343;28;19913;-62
2023/04/20 08:58:31;;;;;;;;;;;;;;;10.08;57.67;101796.88;5058500;28;19963;-62
2023/04/20 09:00:56;;;;;;;;;;;;;;;10.14;57.91;101784.88;5067420;28;19917;-61
2023/04/20 09:03:34;;;;;;;;;;;;;;;10.23;58.11;101781.34;5059759;28;19917;-62
2023/04/20 09:05:59;;;;;;;;;;;;;;;10.29;57.52;101777.28;5066990;28;20275;-61
2023/04/20 09:08:35;;;;;;;;;;;;;;;10.31;57.64;101773.50;5067052;28;20381;-62
2023/04/20 09:11:00;;;;;;;;;;;;;;;10.33;56.96;101776.00;5066434;28;19923;-62
2023/04/20 09:13:25;;;;;;;;;;;;;;;10.13;56.55;101773.41;5067892;28;19912;-62
2023/04/20 09:15:51;;;;;;;;;;;;;;;10.08;57.27;101786.25;5068788;28;19919;-62
2023/04/20 09:18:16;;;;;;;;;;;;;;;10.07;56.88;101776.63;5067753;28;19959;-62
2023/04/20 09:20:41;;;;;;;;;;;;;;;9.93;56.63;101787.69;5063278;28;19999;-61
2023/04/20 09:23:11;;;;;;;;;;;;;;;9.90;57.14;101774.72;5068139;28;19912;-62
2023/04/20 09:25:36;;;;;;;;;;;;;;;9.93;56.99;101777.09;5066491;28;19917;-62
2023/04/20 09:28:01;;;;;;;;;;;;;;;9.91;56.93;101769.28;5067508;28;20003;-62
2023/04/20 09:30:40;;;;;;;;;;;;;;;9.98;56.99;101761.56;5067305;28;19920;-62
2023/04/20 09:33:07;;;;;;;;;;;;;;;9.77;57.31;101758.25;5067457;28;19912;-62
2023/04/20 09:35:32;;;;;;;;;;;;;;;9.89;58.36;101768.59;5063757;28;19931;-62
2023/04/20 09:37:58;;;;;;;;;;;;;;;9.94;58.04;101765.50;5056953;28;19913;-62
2023/04/20 09:40:23;;;;;;;;;;;;;;;10.11;58.37;101755.94;5055882;28;20317;-62
2023/04/20 09:42:49;;;;;;;;;;;;;;;10.30;58.29;101761.22;5056413;28;19927;-62
2023/04/20 09:45:15;;;;;;;;;;;;;;;10.34;57.69;101764.41;5057161;28;20485;-61
2023/04/20 09:47:41;;;;;;;;;;;;;;;10.22;57.09;101764.59;5066041;28;19927;-61
2023/04/20 09:50:09;;;;;;;;;;;;;;;10.05;57.10;101765.31;5069724;28;19912;-61
2023/04/20 09:52:35;;;;;;;;;;;;;;;9.90;56.75;101761.47;5064321;28;20002;-61
2023/04/20 09:55:01;;;;;;;;;;;;;;;9.70;57.90;101762.47;5063752;28;20093;-61
2023/04/20 09:57:27;;;;;;;;;;;;;;;9.67;57.98;101762.75;5071123;28;19913;-61
2023/04/20 09:59:53;;;;;;;;;;;;;;;9.64;58.25;101758.56;5061704;28;19995;-61
2023/04/20 10:02:18;;;;;;;;;;;;;;;9.61;58.48;101758.84;5061475;28;19924;-61
2023/04/20 10:04:51;;;;;;;;;;;;;;;9.66;58.68;101753.97;5067732;28;19920;-62
2023/04/20 10:07:22;;;;;;;;;;;;;;;9.65;58.45;101754.09;5060429;28;20002;-61
2023/04/20 10:09:47;;;;;;;;;;;;;;;9.55;58.65;101754.97;5066990;28;19969;-61
2023/04/20 10:12:13;;;;;;;;;;;;;;;9.53;58.83;101764.84;5061194;28;20007;-61
2023/04/20 10:14:38;;;;;;;;;;;;;;;9.49;58.73;101757.31;5072916;28;19912;-61
2023/04/20 10:17:05;;;;;;;;;;;;;;;9.40;58.79;101760.81;5064475;28;20362;-61
2023/04/20 10:19:38;;;;;;;;;;;;;;;9.34;59.69;101753.44;5060657;28;19917;-60
2023/04/20 10:22:03;;;;;;;;;;;;;;;9.32;60.12;101753.56;5068590;28;19912;-60
2023/04/20 10:24:29;;;;;;;;;;;;;;;9.34;59.94;101756.09;5070723;28;20326;-61
2023/04/20 10:26:54;;;;;;;;;;;;;;;9.30;60.05;101756.38;5063046;28;19951;-61
2023/04/20 10:29:26;;;;;;;;;;;;;;;9.30;59.83;101756.38;5069576;28;19923;-60
2023/04/20 10:31:52;;;;;;;;;;;;;;;9.28;59.85;101758.31;5067864;28;19920;-60
2023/04/20 10:34:28;;;;;;;;;;;;;;;9.25;60.08;101755.97;5061570;28;20011;-61
2023/04/20 10:36:53;;;;;;;;;;;;;;;9.22;60.08;101748.25;5059912;28;20282;-61
2023/04/20 10:39:19;;;;;;;;;;;;;;;9.24;60.07;101743.66;5056731;28;20396;-61
2023/04/20 10:41:54;;;;;;;;;;;;;;;9.28;60.59;101744.25;5066848;28;19916;-61
2023/04/20 10:44:20;;;;;;;;;;;;;;;9.41;60.87;101739.47;5058268;28;20504;-61
2023/04/20 10:46:49;;;;;;;;;;;;;;;9.54;60.35;101747.13;5066281;28;20381;-61
2023/04/20 10:49:15;;;;;;;;;;;;;;;9.72;60.14;101736.63;5069437;28;19920;-60
2023/04/20 10:51:50;;;;;;;;;;;;;;;9.85;60.00;101731.88;5058118;28;19967;-61
2023/04/20 10:54:16;;;;;;;;;;;;;;;9.92;59.41;101735.63;5069386;28;20283;-61
2023/04/20 10:56:45;;;;;;;;;;;;;;;9.87;59.60;101722.78;5065922;28;19919;-61
2023/04/20 10:59:15;;;;;;;;;;;;;;;9.98;59.50;101719.09;5062448;28;19921;-61
2023/04/20 11:01:41;;;;;;;;;;;;;;;10.02;59.08;101719.66;5056629;28;19921;-61
2023/04/20 11:04:06;;;;;;;;;;;;;;;10.06;59.01;101726.34;5059927;28;19921;-61
2023/04/20 11:06:32;;;;;;;;;;;;;;;10.18;59.16;101723.38;5059430;28;19924;-60
2023/04/20 11:08:58;;;;;;;;;;;;;;;10.41;59.17;101712.41;5068347;28;19922;-61
2023/04/20 11:11:24;;;;;;;;;;;;;;;10.53;58.66;101719.19;5060837;28;19994;-61
2023/04/20 11:13:49;;;;;;;;;;;;;;;10.69;58.57;101703.41;5055701;28;20522;-61
2023/04/20 11:16:16;;;;;;;;;;;;;;;10.91;58.19;101710.09;5069820;28;19999;-61
2023/04/20 11:18:49;;;;;;;;;;;;;;;11.11;57.56;101705.47;5064137;28;20003;-61
2023/04/20 11:21:14;;;;;;;;;;;;;;;11.20;56.63;101680.63;5060338;28;20007;-60
2023/04/20 11:23:40;;;;;;;;;;;;;;;11.35;55.99;101684.41;5067786;28;20015;-61
2023/04/20 11:26:05;;;;;;;;;;;;;;;11.37;55.83;101686.91;5063947;28;19944;-61
2023/04/20 11:28:33;;;;;;;;;;;;;;;11.34;56.02;101690.72;5063639;28;19962;-61
2023/04/20 11:30:58;;;;;;;;;;;;;;;11.30;56.30;101686.72;5061022;28;20442;-61
2023/04/20 11:33:26;;;;;;;;;;;;;;;11.13;56.06;101684.88;5068346;28;19912;-61
2023/04/20 11:35:51;;;;;;;;;;;;;;;11.00;55.49;101684.47;5057639;28;19913;-61
2023/04/20 11:38:25;;;;;;;;;;;;;;;10.92;55.72;101676.38;5058924;28;19916;-61
2023/04/20 11:40:50;;;;;;;;;;;;;;;10.79;55.77;101677.63;5055485;28;20012;-61
2023/04/20 11:43:15;;;;;;;;;;;;;;;10.72;56.24;101671.25;5062831;28;19991;-61
2023/04/20 11:45:40;;;;;;;;;;;;;;;10.71;56.35;101671.41;5056173;28;20020;-61
2023/04/20 11:48:06;;;;;;;;;;;;;;;10.65;56.09;101669.31;5062861;28;20332;-61
2023/04/20 11:50:31;;;;;;;;;;;;;;;10.52;56.39;101675.00;5062508;28;20350;-61
2023/04/20 11:52:56;;;;;;;;;;;;;;;10.48;56.61;101671.00;5061475;28;19913;-61
2023/04/20 11:55:21;;;;;;;;;;;;;;;10.44;57.19;101672.28;5067361;28;19916;-61
2023/04/20 11:57:46;;;;;;;;;;;;;;;10.40;56.84;101663.75;5057560;28;19916;-61
2023/04/20 12:00:12;;;;;;;;;;;;;;;10.33;56.86;101667.16;5054374;28;20542;-61
2023/04/20 12:02:37;;;;;;;;;;;;;;;10.33;56.90;101665.34;5057937;28;19917;-61
2023/04/20 12:05:03;;;;;;;;;;;;;;;10.25;57.30;101673.22;5068109;28;19927;-61
2023/04/20 12:07:28;;;;;;;;;;;;;;;10.08;57.67;101677.44;5060622;28;20466;-60
2023/04/20 12:09:53;;;;;;;;;;;;;;;9.94;59.05;101673.47;5064373;28;20024;-61
2023/04/20 12:12:18;;;;;;;;;;;;;;;9.84;59.93;101675.31;5055796;28;19916;-61
2023/04/20 12:14:43;;;;;;;;;;;;;;;9.78;59.91;101669.75;5064170;28;20270;-60
2023/04/20 12:17:09;;;;;;;;;;;;;;;9.63;60.12;101669.38;5063774;28;19920;-61
2023/04/20 12:19:35;;;;;;;;;;;;;;;9.54;59.89;101673.75;5061895;28;19916;-61
2023/04/20 12:22:00;;;;;;;;;;;;;;;9.50;60.26;101658.25;5060365;28;19920;-61
2023/04/20 12:24:25;;;;;;;;;;;;;;;9.45;59.82;101669.28;5061706;28;19920;-61
2023/04/20 12:26:50;;;;;;;;;;;;;;;9.41;59.92;101675.00;5057919;28;20293;-61
2023/04/20 12:29:16;;;;;;;;;;;;;;;9.37;60.13;101676.28;5063418;28;19921;-62
2023/04/20 12:31:41;;;;;;;;;;;;;;;9.35;60.85;101683.53;5057140;28;19999;-61
2023/04/20 12:34:06;;;;;;;;;;;;;;;9.30;61.06;101687.47;5066629;28;20035;-61
2023/04/20 12:36:33;;;;;;;;;;;;;;;9.10;62.60;101690.25;5064134;28;19924;-61